sensor_id;sensor_type;location;lat;lon;timestamp;pressure;altitude;pressure_sealevel;temperature;humidity
54262;BME280;40174;52.364;6.452;2022-10-19T00:01:00;102686.19;;;6.03;100.00
54262;BME280;40174;52.364;6.452;2022-10-19T00:03:26;102691.47;;;6.02;100.00
54262;BME280;40174;52.364;6.452;2022-10-19T00:05:53;102693.28;;;6.00;100.00
54262;BME280;40174;52.364;6.452;2022-10-19T00:08:19;102687.22;;;5.98;100.00
54262;BME280;40174;52.364;6.452;2022-10-19T00:10:46;102696.00;;;5.97;100.00
54262;BME280;40174;52.364;6.452;2022-10-19T00:13:13;102687.91;;;6.03;100.00
54262;BME280;40174;52.364;6.452;2022-10-19T00:15:41;102693.97;;;6.05;100.00
54262;BME280;40174;52.364;6.452;2022-10-19T00:18:09;102690.53;;;6.03;100.00
54262;BME280;40174;52.364;6.452;2022-10-19T00:20:36;102690.53;;;6.03;100.00
54262;BME280;40174;52.364;6.452;2022-10-19T00:23:03;102690.53;;;6.03;100.00
54262;BME280;40174;52.364;6.452;2022-10-19T00:25:29;102682.66;;;6.03;100.00
54262;BME280;40174;52.364;6.452;2022-10-19T00:27:56;102677.41;;;6.03;100.00
54262;BME280;40174;52.364;6.452;2022-10-19T00:30:22;102673.94;;;6.02;100.00
54262;BME280;40174;52.364;6.452;2022-10-19T00:32:50;102671.16;;;6.07;100.00
54262;BME280;40174;52.364;6.452;2022-10-19T00:35:17;102661.44;;;6.11;100.00
54262;BME280;40174;52.364;6.452;2022-10-19T00:37:43;102669.19;;;6.14;100.00
54262;BME280;40174;52.364;6.452;2022-10-19T00:40:10;102663.00;;;6.16;100.00
54262;BME280;40174;52.364;6.452;2022-10-19T00:42:37;102672.50;;;6.20;100.00
54262;BME280;40174;52.364;6.452;2022-10-19T00:45:08;102673.28;;;6.22;100.00
54262;BME280;40174;52.364;6.452;2022-10-19T00:47:37;102668.81;;;6.26;100.00
54262;BME280;40174;52.364;6.452;2022-10-19T00:50:06;102676.53;;;6.31;100.00
54262;BME280;40174;52.364;6.452;2022-10-19T00:52:33;102678.25;;;6.32;100.00
54262;BME280;40174;52.364;6.452;2022-10-19T00:55:00;102682.69;;;6.30;100.00
54262;BME280;40174;52.364;6.452;2022-10-19T00:57:28;102682.69;;;6.30;100.00
54262;BME280;40174;52.364;6.452;2022-10-19T00:59:57;102670.47;;;6.29;100.00
54262;BME280;40174;52.364;6.452;2022-10-19T01:02:25;102674.81;;;6.30;100.00
54262;BME280;40174;52.364;6.452;2022-10-19T01:04:52;102674.66;;;6.34;100.00
54262;BME280;40174;52.364;6.452;2022-10-19T01:07:20;102678.97;;;6.37;100.00
54262;BME280;40174;52.364;6.452;2022-10-19T01:09:47;102666.84;;;6.33;100.00
54262;BME280;40174;52.364;6.452;2022-10-19T01:12:32;102663.50;;;6.28;100.00
54262;BME280;40174;52.364;6.452;2022-10-19T01:15:12;102667.03;;;6.27;100.00
54262;BME280;40174;52.364;6.452;2022-10-19T01:17:49;102656.72;;;6.20;100.00
54262;BME280;40174;52.364;6.452;2022-10-19T01:20:56;102661.25;;;6.17;100.00
54262;BME280;40174;52.364;6.452;2022-10-19T01:26:50;102660.72;;;6.06;100.00
54262;BME280;40174;52.364;6.452;2022-10-19T01:29:30;102664.25;;;6.04;100.00
54262;BME280;40174;52.364;6.452;2022-10-19T01:32:07;102658.34;;;5.98;100.00
54262;BME280;40174;52.364;6.452;2022-10-19T01:34:41;102656.66;;;5.95;100.00
54262;BME280;40174;52.364;6.452;2022-10-19T01:37:16;102661.13;;;5.92;100.00
54262;BME280;40174;52.364;6.452;2022-10-19T01:39:51;102656.00;;;5.87;100.00
54262;BME280;40174;52.364;6.452;2022-10-19T01:42:23;102664.00;;;5.84;100.00
54262;BME280;40174;52.364;6.452;2022-10-19T01:44:57;102656.16;;;5.82;100.00
54262;BME280;40174;52.364;6.452;2022-10-19T01:47:31;102659.69;;;5.81;100.00
54262;BME280;40174;52.364;6.452;2022-10-19T01:50:01;102659.78;;;5.78;100.00
54262;BME280;40174;52.364;6.452;2022-10-19T01:52:32;102662.53;;;5.74;100.00
54262;BME280;40174;52.364;6.452;2022-10-19T01:55:00;102656.50;;;5.72;100.00
54262;BME280;40174;52.364;6.452;2022-10-19T01:57:31;102659.22;;;5.69;100.00
54262;BME280;40174;52.364;6.452;2022-10-19T02:00:00;102654.00;;;5.67;100.00
54262;BME280;40174;52.364;6.452;2022-10-19T02:02:41;102652.41;;;5.63;100.00
54262;BME280;40174;52.364;6.452;2022-10-19T02:05:10;102645.56;;;5.57;100.00
54262;BME280;40174;52.364;6.452;2022-10-19T02:07:39;102651.78;;;5.55;100.00
54262;BME280;40174;52.364;6.452;2022-10-19T02:10:07;102647.56;;;5.49;100.00
54262;BME280;40174;52.364;6.452;2022-10-19T02:12:35;102652.88;;;5.48;100.00
54262;BME280;40174;52.364;6.452;2022-10-19T02:15:09;102653.88;;;5.42;100.00
54262;BME280;40174;52.364;6.452;2022-10-19T02:17:41;102647.97;;;5.35;100.00
54262;BME280;40174;52.364;6.452;2022-10-19T02:20:09;102651.56;;;5.31;100.00
54262;BME280;40174;52.364;6.452;2022-10-19T02:22:36;102644.72;;;5.27;100.00
54262;BME280;40174;52.364;6.452;2022-10-19T02:25:03;102650.84;;;5.26;100.00
54262;BME280;40174;52.364;6.452;2022-10-19T02:27:30;102654.47;;;5.22;100.00
54262;BME280;40174;52.364;6.452;2022-10-19T02:29:56;102646.69;;;5.19;100.00
54262;BME280;40174;52.364;6.452;2022-10-19T02:32:24;102648.50;;;5.17;100.00
54262;BME280;40174;52.364;6.452;2022-10-19T02:34:53;102644.22;;;5.14;100.00
54262;BME280;40174;52.364;6.452;2022-10-19T02:37:20;102643.44;;;5.11;100.00
54262;BME280;40174;52.364;6.452;2022-10-19T02:39:47;102640.91;;;5.08;100.00
54262;BME280;40174;52.364;6.452;2022-10-19T02:42:16;102640.09;;;5.06;100.00
54262;BME280;40174;52.364;6.452;2022-10-19T02:44:48;102634.06;;;5.02;100.00
54262;BME280;40174;52.364;6.452;2022-10-19T02:47:19;102635.81;;;5.02;100.00
54262;BME280;40174;52.364;6.452;2022-10-19T02:49:48;102634.19;;;4.97;100.00
54262;BME280;40174;52.364;6.452;2022-10-19T02:52:16;102639.50;;;4.96;100.00
54262;BME280;40174;52.364;6.452;2022-10-19T02:54:43;102632.53;;;4.95;100.00
54262;BME280;40174;52.364;6.452;2022-10-19T02:57:14;102633.44;;;4.94;100.00
54262;BME280;40174;52.364;6.452;2022-10-19T02:59:42;102635.25;;;4.92;100.00
54262;BME280;40174;52.364;6.452;2022-10-19T03:02:08;102640.44;;;4.93;100.00
54262;BME280;40174;52.364;6.452;2022-10-19T03:04:35;102630.00;;;4.92;100.00
54262;BME280;40174;52.364;6.452;2022-10-19T03:07:01;102630.03;;;4.90;100.00
54262;BME280;40174;52.364;6.452;2022-10-19T03:09:29;102632.66;;;4.90;100.00
54262;BME280;40174;52.364;6.452;2022-10-19T03:11:56;102641.44;;;4.89;100.00
54262;BME280;40174;52.364;6.452;2022-10-19T03:14:22;102635.34;;;4.89;100.00
54262;BME280;40174;52.364;6.452;2022-10-19T03:16:49;102634.44;;;4.88;100.00
54262;BME280;40174;52.364;6.452;2022-10-19T03:19:16;102631.84;;;4.88;100.00
54262;BME280;40174;52.364;6.452;2022-10-19T03:21:42;102638.84;;;4.88;100.00
54262;BME280;40174;52.364;6.452;2022-10-19T03:24:09;102642.31;;;4.88;100.00
54262;BME280;40174;52.364;6.452;2022-10-19T03:26:36;102635.41;;;4.86;100.00
54262;BME280;40174;52.364;6.452;2022-10-19T03:29:03;102637.06;;;4.88;100.00
54262;BME280;40174;52.364;6.452;2022-10-19T03:31:30;102634.53;;;4.85;100.00
54262;BME280;40174;52.364;6.452;2022-10-19T03:33:56;102639.00;;;4.82;100.00
54262;BME280;40174;52.364;6.452;2022-10-19T03:36:25;102637.25;;;4.82;100.00
54262;BME280;40174;52.364;6.452;2022-10-19T03:38:53;102653.78;;;4.84;100.00
54262;BME280;40174;52.364;6.452;2022-10-19T03:41:21;102646.81;;;4.85;100.00
54262;BME280;40174;52.364;6.452;2022-10-19T03:43:49;102643.19;;;4.89;100.00
54262;BME280;40174;52.364;6.452;2022-10-19T03:46:16;102642.31;;;4.88;100.00
54262;BME280;40174;52.364;6.452;2022-10-19T03:48:43;102650.09;;;4.91;100.00
54262;BME280;40174;52.364;6.452;2022-10-19T03:51:12;102641.19;;;4.97;100.00
54262;BME280;40174;52.364;6.452;2022-10-19T03:53:39;102642.94;;;4.98;100.00
54262;BME280;40174;52.364;6.452;2022-10-19T03:56:08;102643.69;;;5.02;100.00
54262;BME280;40174;52.364;6.452;2022-10-19T03:58:37;102641.06;;;5.02;100.00
54262;BME280;40174;52.364;6.452;2022-10-19T04:01:07;102644.53;;;5.02;100.00
54262;BME280;40174;52.364;6.452;2022-10-19T04:03:35;102645.38;;;5.04;100.00
54262;BME280;40174;52.364;6.452;2022-10-19T04:06:03;102638.41;;;5.03;100.00
54262;BME280;40174;52.364;6.452;2022-10-19T04:08:30;102635.81;;;5.02;100.00
54262;BME280;40174;52.364;6.452;2022-10-19T04:10:58;102643.66;;;5.03;100.00
54262;BME280;40174;52.364;6.452;2022-10-19T04:13:25;102634.97;;;5.01;100.00
54262;BME280;40174;52.364;6.452;2022-10-19T04:15:52;102642.84;;;5.01;100.00
54262;BME280;40174;52.364;6.452;2022-10-19T04:18:20;102638.44;;;5.02;100.00
54262;BME280;40174;52.364;6.452;2022-10-19T04:20:46;102634.03;;;5.04;100.00
54262;BME280;40174;52.364;6.452;2022-10-19T04:23:13;102633.16;;;5.05;100.00
54262;BME280;40174;52.364;6.452;2022-10-19T04:25:39;102631.34;;;5.07;100.00
54262;BME280;40174;52.364;6.452;2022-10-19T04:28:06;102634.00;;;5.05;100.00
54262;BME280;40174;52.364;6.452;2022-10-19T04:30:32;102619.97;;;5.06;100.00
54262;BME280;40174;52.364;6.452;2022-10-19T04:32:59;102620.78;;;5.08;100.00
54262;BME280;40174;52.364;6.452;2022-10-19T04:35:27;102624.25;;;5.09;100.00
54262;BME280;40174;52.364;6.452;2022-10-19T04:37:53;102618.16;;;5.08;100.00
54262;BME280;40174;52.364;6.452;2022-10-19T04:40:20;102620.84;;;5.07;100.00
54262;BME280;40174;52.364;6.452;2022-10-19T04:42:46;102611.38;;;5.01;100.00
54262;BME280;40174;52.364;6.452;2022-10-19T04:45:13;102618.44;;;4.99;100.00
54262;BME280;40174;52.364;6.452;2022-10-19T04:47:39;102613.22;;;4.97;100.00
54262;BME280;40174;52.364;6.452;2022-10-19T04:50:06;102608.94;;;4.95;100.00
54262;BME280;40174;52.364;6.452;2022-10-19T04:52:34;102607.31;;;4.91;100.00
54262;BME280;40174;52.364;6.452;2022-10-19T04:55:01;102602.19;;;4.86;100.00
54262;BME280;40174;52.364;6.452;2022-10-19T04:57:28;102596.19;;;4.83;100.00
54262;BME280;40174;52.364;6.452;2022-10-19T04:59:54;102603.38;;;4.76;100.00
54262;BME280;40174;52.364;6.452;2022-10-19T05:02:21;102602.53;;;4.74;100.00
54262;BME280;40174;52.364;6.452;2022-10-19T05:04:47;102594.78;;;4.71;100.00
54262;BME280;40174;52.364;6.452;2022-10-19T05:07:14;102596.50;;;4.72;100.00
54262;BME280;40174;52.364;6.452;2022-10-19T05:09:42;102588.72;;;4.69;100.00
54262;BME280;40174;52.364;6.452;2022-10-19T05:12:08;102593.16;;;4.67;100.00
54262;BME280;40174;52.364;6.452;2022-10-19T05:14:35;102598.28;;;4.70;100.00
54262;BME280;40174;52.364;6.452;2022-10-19T05:17:01;102595.78;;;4.65;100.00
54262;BME280;40174;52.364;6.452;2022-10-19T05:19:28;102600.19;;;4.65;100.00
54262;BME280;40174;52.364;6.452;2022-10-19T05:21:54;102595.88;;;4.62;100.00
54262;BME280;40174;52.364;6.452;2022-10-19T05:24:21;102600.25;;;4.62;100.00
54262;BME280;40174;52.364;6.452;2022-10-19T05:26:49;102594.25;;;4.58;100.00
54262;BME280;40174;52.364;6.452;2022-10-19T05:29:16;102595.13;;;4.57;100.00
54262;BME280;40174;52.364;6.452;2022-10-19T05:31:42;102594.28;;;4.56;100.00
54262;BME280;40174;52.364;6.452;2022-10-19T05:34:09;102598.66;;;4.56;100.00
54262;BME280;40174;52.364;6.452;2022-10-19T05:36:37;102603.06;;;4.55;100.00
54262;BME280;40174;52.364;6.452;2022-10-19T05:39:05;102596.19;;;4.51;100.00
54262;BME280;40174;52.364;6.452;2022-10-19T05:41:32;102596.19;;;4.50;100.00
54262;BME280;40174;52.364;6.452;2022-10-19T05:44:01;102600.69;;;4.46;100.00
54262;BME280;40174;52.364;6.452;2022-10-19T05:46:29;102607.66;;;4.46;100.00
54262;BME280;40174;52.364;6.452;2022-10-19T05:48:56;102610.25;;;4.47;100.00
54262;BME280;40174;52.364;6.452;2022-10-19T05:51:25;102608.53;;;4.46;100.00
54262;BME280;40174;52.364;6.452;2022-10-19T05:53:52;102608.59;;;4.43;100.00
54262;BME280;40174;52.364;6.452;2022-10-19T05:56:20;102606.13;;;4.37;100.00
54262;BME280;40174;52.364;6.452;2022-10-19T05:58:47;102603.59;;;4.34;100.00
54262;BME280;40174;52.364;6.452;2022-10-19T06:01:17;102611.56;;;4.31;100.00
54262;BME280;40174;52.364;6.452;2022-10-19T06:03:44;102613.38;;;4.27;100.00
54262;BME280;40174;52.364;6.452;2022-10-19T06:06:11;102616.94;;;4.25;100.00
54262;BME280;40174;52.364;6.452;2022-10-19T06:08:38;102625.66;;;4.24;100.00
54262;BME280;40174;52.364;6.452;2022-10-19T06:11:06;102641.28;;;4.28;100.00
54262;BME280;40174;52.364;6.452;2022-10-19T06:13:34;102634.22;;;4.30;100.00
54262;BME280;40174;52.364;6.452;2022-10-19T06:16:00;102636.75;;;4.35;100.00
54262;BME280;40174;52.364;6.452;2022-10-19T06:18:28;102630.50;;;4.41;100.00
54262;BME280;40174;52.364;6.452;2022-10-19T06:20:55;102639.13;;;4.44;100.00
54262;BME280;40174;52.364;6.452;2022-10-19T06:23:21;102640.75;;;4.48;100.00
54262;BME280;40174;52.364;6.452;2022-10-19T06:25:48;102642.38;;;4.54;100.00
54262;BME280;40174;52.364;6.452;2022-10-19T06:28:14;102635.31;;;4.57;100.00
54262;BME280;40174;52.364;6.452;2022-10-19T06:30:41;102636.88;;;4.63;100.00
54262;BME280;40174;52.364;6.452;2022-10-19T06:33:07;102634.09;;;4.69;100.00
54262;BME280;40174;52.364;6.452;2022-10-19T06:35:35;102640.94;;;4.75;100.00
54262;BME280;40174;52.364;6.452;2022-10-19T06:38:02;102642.53;;;4.81;100.00
54262;BME280;40174;52.364;6.452;2022-10-19T06:40:29;102638.94;;;4.85;100.00
54262;BME280;40174;52.364;6.452;2022-10-19T06:42:55;102644.06;;;4.89;100.00
54262;BME280;40174;52.364;6.452;2022-10-19T06:45:23;102635.16;;;4.95;100.00
54262;BME280;40174;52.364;6.452;2022-10-19T06:47:49;102636.75;;;5.00;100.00
54262;BME280;40174;52.364;6.452;2022-10-19T06:50:16;102650.47;;;5.09;100.00
54262;BME280;40174;52.364;6.452;2022-10-19T06:52:44;102651.22;;;5.14;100.00
54262;BME280;40174;52.364;6.452;2022-10-19T06:55:11;102650.19;;;5.19;100.00
54262;BME280;40174;52.364;6.452;2022-10-19T06:57:38;102648.31;;;5.25;100.00
54262;BME280;40174;52.364;6.452;2022-10-19T07:00:05;102648.94;;;5.31;100.00
54262;BME280;40174;52.364;6.452;2022-10-19T07:02:32;102649.69;;;5.36;100.00
54262;BME280;40174;52.364;6.452;2022-10-19T07:04:58;102655.56;;;5.45;100.00
54262;BME280;40174;52.364;6.452;2022-10-19T07:07:25;102654.50;;;5.52;100.00
54262;BME280;40174;52.364;6.452;2022-10-19T07:09:53;102650.84;;;5.56;100.00
54262;BME280;40174;52.364;6.452;2022-10-19T07:12:19;102659.50;;;5.59;100.00
54262;BME280;40174;52.364;6.452;2022-10-19T07:14:46;102655.88;;;5.63;100.00
54262;BME280;40174;52.364;6.452;2022-10-19T07:17:12;102653.81;;;5.73;100.00
54262;BME280;40174;52.364;6.452;2022-10-19T07:19:39;102655.50;;;5.76;100.00
54262;BME280;40174;52.364;6.452;2022-10-19T07:22:06;102667.53;;;5.83;100.00
54262;BME280;40174;52.364;6.452;2022-10-19T07:24:32;102663.84;;;5.89;100.00
54262;BME280;40174;52.364;6.452;2022-10-19T07:27:00;102659.44;;;5.89;100.00
54262;BME280;40174;52.364;6.452;2022-10-19T07:29:27;102658.38;;;5.96;100.00
54262;BME280;40174;52.364;6.452;2022-10-19T07:31:53;102660.88;;;6.01;100.00
54262;BME280;40174;52.364;6.452;2022-10-19T07:34:20;102649.19;;;6.10;100.00
54262;BME280;40174;52.364;6.452;2022-10-19T07:36:47;102649.13;;;6.13;100.00
54262;BME280;40174;52.364;6.452;2022-10-19T07:39:14;102654.19;;;6.19;100.00
54262;BME280;40174;52.364;6.452;2022-10-19T07:41:42;102647.75;;;6.28;100.00
54262;BME280;40174;52.364;6.452;2022-10-19T07:44:11;102643.22;;;6.33;100.00
54262;BME280;40174;52.364;6.452;2022-10-19T07:46:38;102648.19;;;6.40;100.00
54262;BME280;40174;52.364;6.452;2022-10-19T07:49:07;102646.00;;;6.53;100.00
54262;BME280;40174;52.364;6.452;2022-10-19T07:51:35;102650.94;;;6.62;100.00
54262;BME280;40174;52.364;6.452;2022-10-19T07:54:02;102649.63;;;6.76;100.00
54262;BME280;40174;52.364;6.452;2022-10-19T07:56:30;102658.25;;;6.79;100.00
54262;BME280;40174;52.364;6.452;2022-10-19T07:58:58;102651.16;;;6.81;100.00
54262;BME280;40174;52.364;6.452;2022-10-19T08:01:28;102651.69;;;6.91;100.00
54262;BME280;40174;52.364;6.452;2022-10-19T08:03:56;102658.41;;;7.00;100.00
54262;BME280;40174;52.364;6.452;2022-10-19T08:06:23;102646.75;;;7.07;100.00
54262;BME280;40174;52.364;6.452;2022-10-19T08:08:51;102651.53;;;7.19;100.00
54262;BME280;40174;52.364;6.452;2022-10-19T08:11:20;102652.69;;;7.36;100.00
54262;BME280;40174;52.364;6.452;2022-10-19T08:13:47;102655.31;;;7.36;100.00
54262;BME280;40174;52.364;6.452;2022-10-19T08:16:22;102656.56;;;7.49;100.00
54262;BME280;40174;52.364;6.452;2022-10-19T08:18:50;102651.19;;;7.52;100.00
54262;BME280;40174;52.364;6.452;2022-10-19T08:21:17;102658.91;;;7.57;100.00
54262;BME280;40174;52.364;6.452;2022-10-19T08:23:44;102653.34;;;7.64;100.00
54262;BME280;40174;52.364;6.452;2022-10-19T08:26:11;102652.81;;;7.78;100.00
54262;BME280;40174;52.364;6.452;2022-10-19T08:28:37;102655.97;;;7.86;100.00
54262;BME280;40174;52.364;6.452;2022-10-19T08:31:11;102650.34;;;7.96;100.00
54262;BME280;40174;52.364;6.452;2022-10-19T08:33:39;102639.38;;;8.06;100.00
54262;BME280;40174;52.364;6.452;2022-10-19T08:36:08;102652.34;;;8.11;100.00
54262;BME280;40174;52.364;6.452;2022-10-19T08:38:36;102655.78;;;8.13;100.00
54262;BME280;40174;52.364;6.452;2022-10-19T08:41:17;102658.00;;;8.24;100.00
54262;BME280;40174;52.364;6.452;2022-10-19T08:43:56;102663.72;;;8.33;100.00
54262;BME280;40174;52.364;6.452;2022-10-19T08:46:28;102650.94;;;8.46;100.00
54262;BME280;40174;52.364;6.452;2022-10-19T08:49:01;102653.81;;;8.61;100.00
54262;BME280;40174;52.364;6.452;2022-10-19T08:51:33;102660.69;;;8.65;100.00
54262;BME280;40174;52.364;6.452;2022-10-19T08:54:05;102659.47;;;8.72;100.00
54262;BME280;40174;52.364;6.452;2022-10-19T08:56:41;102655.28;;;8.88;100.00
54262;BME280;40174;52.364;6.452;2022-10-19T08:59:13;102657.63;;;8.94;100.00
54262;BME280;40174;52.364;6.452;2022-10-19T09:01:50;102653.38;;;9.11;100.00
54262;BME280;40174;52.364;6.452;2022-10-19T09:04:21;102646.97;;;9.16;100.00
54262;BME280;40174;52.364;6.452;2022-10-19T09:06:59;102642.84;;;9.30;100.00
54262;BME280;40174;52.364;6.452;2022-10-19T09:09:30;102648.56;;;9.40;100.00
54262;BME280;40174;52.364;6.452;2022-10-19T09:12:02;102648.19;;;9.47;100.00
54262;BME280;40174;52.364;6.452;2022-10-19T09:14:32;102646.06;;;9.55;100.00
54262;BME280;40174;52.364;6.452;2022-10-19T09:17:05;102649.06;;;9.67;100.00
54262;BME280;40174;52.364;6.452;2022-10-19T09:19:35;102649.25;;;9.81;100.00
54262;BME280;40174;52.364;6.452;2022-10-19T09:22:06;102647.72;;;9.94;100.00
54262;BME280;40174;52.364;6.452;2022-10-19T09:24:39;102636.69;;;10.04;100.00
54262;BME280;40174;52.364;6.452;2022-10-19T09:27:15;102638.88;;;10.13;100.00
54262;BME280;40174;52.364;6.452;2022-10-19T09:29:47;102637.78;;;10.17;100.00
54262;BME280;40174;52.364;6.452;2022-10-19T09:32:18;102631.84;;;10.31;100.00
54262;BME280;40174;52.364;6.452;2022-10-19T09:34:49;102637.53;;;10.40;100.00
54262;BME280;40174;52.364;6.452;2022-10-19T09:37:18;102629.03;;;10.51;100.00
54262;BME280;40174;52.364;6.452;2022-10-19T09:39:46;102629.88;;;10.69;100.00
54262;BME280;40174;52.364;6.452;2022-10-19T09:42:19;102630.34;;;10.77;100.00
54262;BME280;40174;52.364;6.452;2022-10-19T09:44:47;102622.69;;;10.89;100.00
54262;BME280;40174;52.364;6.452;2022-10-19T09:47:25;102625.63;;;11.00;100.00
54262;BME280;40174;52.364;6.452;2022-10-19T09:50:06;102619.56;;;11.14;100.00
54262;BME280;40174;52.364;6.452;2022-10-19T09:52:36;102614.47;;;11.27;100.00
54262;BME280;40174;52.364;6.452;2022-10-19T09:55:05;102614.22;;;11.31;100.00
54262;BME280;40174;52.364;6.452;2022-10-19T09:57:40;102619.78;;;11.42;100.00
54262;BME280;40174;52.364;6.452;2022-10-19T10:00:16;102617.31;;;11.55;100.00
54262;BME280;40174;52.364;6.452;2022-10-19T10:02:44;102604.38;;;11.65;100.00
54262;BME280;40174;52.364;6.452;2022-10-19T10:05:14;102606.94;;;11.82;100.00
54262;BME280;40174;52.364;6.452;2022-10-19T10:07:42;102606.66;;;11.87;100.00
54262;BME280;40174;52.364;6.452;2022-10-19T10:10:17;102598.63;;;12.04;100.00
54262;BME280;40174;52.364;6.452;2022-10-19T10:12:45;102610.09;;;12.05;100.00
54262;BME280;40174;52.364;6.452;2022-10-19T10:15:15;102596.09;;;12.17;100.00
54262;BME280;40174;52.364;6.452;2022-10-19T10:17:44;102596.59;;;12.24;100.00
54262;BME280;40174;52.364;6.452;2022-10-19T10:20:23;102589.59;;;12.37;100.00
54262;BME280;40174;52.364;6.452;2022-10-19T10:22:56;102591.69;;;12.46;100.00
54262;BME280;40174;52.364;6.452;2022-10-19T10:25:26;102590.97;;;12.59;100.00
54262;BME280;40174;52.364;6.452;2022-10-19T10:27:56;102588.88;;;12.64;100.00
54262;BME280;40174;52.364;6.452;2022-10-19T10:30:23;102599.13;;;12.70;100.00
54262;BME280;40174;52.364;6.452;2022-10-19T10:32:52;102603.00;;;12.64;97.95
54262;BME280;40174;52.364;6.452;2022-10-19T10:35:23;102604.59;;;12.53;99.45
54262;BME280;40174;52.364;6.452;2022-10-19T10:37:51;102595.59;;;12.55;100.00
54262;BME280;40174;52.364;6.452;2022-10-19T10:40:22;102586.16;;;12.51;100.00
54262;BME280;40174;52.364;6.452;2022-10-19T10:42:50;102587.00;;;12.52;100.00
54262;BME280;40174;52.364;6.452;2022-10-19T10:45:19;102580.66;;;12.54;100.00
54262;BME280;40174;52.364;6.452;2022-10-19T10:47:48;102589.38;;;12.56;100.00
54262;BME280;40174;52.364;6.452;2022-10-19T10:50:19;102586.72;;;12.56;100.00
54262;BME280;40174;52.364;6.452;2022-10-19T10:52:58;102573.81;;;12.50;99.80
54262;BME280;40174;52.364;6.452;2022-10-19T10:55:27;102578.28;;;12.50;97.69
54262;BME280;40174;52.364;6.452;2022-10-19T10:58:04;102566.72;;;12.65;97.35
54262;BME280;40174;52.364;6.452;2022-10-19T11:00:36;102557.84;;;12.80;96.94
54262;BME280;40174;52.364;6.452;2022-10-19T11:03:07;102565.75;;;12.95;96.44
54262;BME280;40174;52.364;6.452;2022-10-19T11:05:39;102545.56;;;13.06;94.42
54262;BME280;40174;52.364;6.452;2022-10-19T11:08:16;102553.59;;;13.19;94.37
54262;BME280;40174;52.364;6.452;2022-10-19T11:10:48;102547.03;;;13.25;93.06
54262;BME280;40174;52.364;6.452;2022-10-19T11:13:21;102546.50;;;13.34;92.30
54262;BME280;40174;52.364;6.452;2022-10-19T11:15:53;102546.19;;;13.39;93.81
54262;BME280;40174;52.364;6.452;2022-10-19T11:18:23;102546.66;;;13.31;93.66
54262;BME280;40174;52.364;6.452;2022-10-19T11:21:01;102536.69;;;13.20;93.74
54262;BME280;40174;52.364;6.452;2022-10-19T11:23:39;102542.13;;;13.19;93.83
54262;BME280;40174;52.364;6.452;2022-10-19T11:26:18;102538.91;;;13.28;95.10
54262;BME280;40174;52.364;6.452;2022-10-19T11:29:01;102535.44;;;13.40;95.04
54262;BME280;40174;52.364;6.452;2022-10-19T11:31:40;102526.69;;;13.52;95.52
54262;BME280;40174;52.364;6.452;2022-10-19T11:34:23;102524.16;;;13.64;95.07
54262;BME280;40174;52.364;6.452;2022-10-19T11:36:58;102523.38;;;13.89;94.41
54262;BME280;40174;52.364;6.452;2022-10-19T11:39:40;102511.50;;;13.95;91.09
54262;BME280;40174;52.364;6.452;2022-10-19T11:42:16;102501.19;;;14.16;91.31
54262;BME280;40174;52.364;6.452;2022-10-19T11:44:51;102504.28;;;14.35;90.70
54262;BME280;40174;52.364;6.452;2022-10-19T11:47:35;102504.25;;;14.48;88.19
54262;BME280;40174;52.364;6.452;2022-10-19T11:50:17;102505.94;;;14.62;86.84
54262;BME280;40174;52.364;6.452;2022-10-19T11:52:51;102500.34;;;14.66;86.08
54262;BME280;40174;52.364;6.452;2022-10-19T11:55:30;102494.69;;;14.71;84.75
54262;BME280;40174;52.364;6.452;2022-10-19T11:58:21;102499.13;;;14.70;84.15
54262;BME280;40174;52.364;6.452;2022-10-19T12:00:57;102480.47;;;14.83;85.98
54262;BME280;40174;52.364;6.452;2022-10-19T12:03:46;102484.53;;;14.89;84.56
54262;BME280;40174;52.364;6.452;2022-10-19T12:06:22;102478.84;;;14.93;84.74
54262;BME280;40174;52.364;6.452;2022-10-19T12:09:03;102480.53;;;14.94;84.26
54262;BME280;40174;52.364;6.452;2022-10-19T12:11:44;102467.69;;;15.12;84.41
54262;BME280;40174;52.364;6.452;2022-10-19T12:14:18;102462.97;;;15.40;84.21
54262;BME280;40174;52.364;6.452;2022-10-19T12:16:49;102465.69;;;15.51;81.42
54262;BME280;40174;52.364;6.452;2022-10-19T12:19:20;102456.66;;;15.65;81.20
54262;BME280;40174;52.364;6.452;2022-10-19T12:21:49;102446.22;;;15.62;79.38
54262;BME280;40174;52.364;6.452;2022-10-19T12:24:19;102437.28;;;15.63;79.27
54262;BME280;40174;52.364;6.452;2022-10-19T12:26:48;102431.38;;;15.71;78.97
54262;BME280;40174;52.364;6.452;2022-10-19T12:29:20;102432.53;;;15.67;77.91
54262;BME280;40174;52.364;6.452;2022-10-19T12:31:48;102426.88;;;15.71;76.90
54262;BME280;40174;52.364;6.452;2022-10-19T12:34:24;102420.50;;;15.85;77.68
54262;BME280;40174;52.364;6.452;2022-10-19T12:36:55;102419.81;;;16.06;77.20
54262;BME280;40174;52.364;6.452;2022-10-19T12:39:29;102417.97;;;16.06;75.36
54262;BME280;40174;52.364;6.452;2022-10-19T12:42:05;102403.19;;;16.13;75.59
54262;BME280;40174;52.364;6.452;2022-10-19T12:45:08;102396.75;;;16.27;76.27
54262;BME280;40174;52.364;6.452;2022-10-19T12:47:38;102396.72;;;16.38;75.48
54262;BME280;40174;52.364;6.452;2022-10-19T12:50:05;102383.66;;;16.35;73.81
54262;BME280;40174;52.364;6.452;2022-10-19T12:52:41;102386.06;;;16.38;73.48
54262;BME280;40174;52.364;6.452;2022-10-19T12:55:24;102382.09;;;16.21;74.64
54262;BME280;40174;52.364;6.452;2022-10-19T12:58:00;102382.94;;;16.11;75.84
54262;BME280;40174;52.364;6.452;2022-10-19T13:00:30;102387.16;;;16.13;74.96
54262;BME280;40174;52.364;6.452;2022-10-19T13:03:00;102386.44;;;16.00;75.67
54262;BME280;40174;52.364;6.452;2022-10-19T13:05:29;102378.19;;;15.92;76.23